Time;durP1;ratioP1;P1;durP2;ratioP2;P2;SDS_P1;SDS_P2;PMS_P1;PMS_P2;Temp;Humidity;BMP_temperature;BMP_pressure;BME280_temperature;BME280_humidity;BME280_pressure;Samples;Min_cycle;Max_cycle;Signal;HPM_P1;HPM_P2
2022/04/17 00:00:05;;;;;;;3.43;3.13;;;8.30;65.70;;;;;;5090344;28;20606;-60
2022/04/17 00:02:31;;;;;;;5.40;3.53;;;8.60;66.70;;;;;;5083552;28;20526;-60
2022/04/17 00:04:56;;;;;;;3.43;3.13;;;8.30;66.50;;;;;;5073952;28;20287;-60
2022/04/17 00:07:22;;;;;;;3.83;3.43;;;8.30;67.70;;;;;;5091195;28;20210;-59
2022/04/17 00:09:47;;;;;;;4.37;3.30;;;8.30;68.60;;;;;;5086053;28;20550;-60
2022/04/17 00:12:13;;;;;;;5.93;3.43;;;8.30;70.20;;;;;;5086095;28;20199;-60
2022/04/17 00:14:39;;;;;;;3.87;3.57;;;8.40;68.80;;;;;;5091712;28;20235;-60
2022/04/17 00:17:04;;;;;;;3.50;3.20;;;8.30;71.20;;;;;;5086400;28;20184;-60
2022/04/17 00:19:30;;;;;;;3.57;3.27;;;7.90;72.20;;;;;;5090142;28;20177;-60
2022/04/17 00:21:55;;;;;;;4.03;3.60;;;8.20;73.00;;;;;;5091734;28;20180;-59
2022/04/17 00:24:21;;;;;;;3.87;3.40;;;8.10;73.10;;;;;;5086510;28;20284;-60
2022/04/17 00:26:47;;;;;;;3.60;3.30;;;8.70;74.70;;;;;;5077854;28;20779;-59
2022/04/17 00:29:12;;;;;;;3.70;3.17;;;7.70;74.70;;;;;;5090352;28;20661;-60
2022/04/17 00:31:38;;;;;;;4.20;3.80;;;8.20;75.10;;;;;;5089559;28;20195;-60
2022/04/17 00:34:04;;;;;;;3.43;3.00;;;7.80;74.90;;;;;;5067082;28;21054;-59
2022/04/17 00:36:30;;;;;;;3.50;3.20;;;7.90;75.60;;;;;;5087630;28;20662;-60
2022/04/17 00:38:55;;;;;;;3.20;3.00;;;8.00;76.10;;;;;;5072457;28;20225;-60
2022/04/17 00:41:21;;;;;;;4.00;3.60;;;7.80;76.30;;;;;;5090872;28;20517;-60
2022/04/17 00:43:48;;;;;;;4.07;2.83;;;7.60;76.80;;;;;;5091971;28;20252;-60
2022/04/17 00:46:15;;;;;;;4.40;4.00;;;7.70;78.50;;;;;;5082898;28;20641;-59
2022/04/17 00:48:40;;;;;;;5.93;3.53;;;7.80;78.80;;;;;;5088589;28;20196;-60
2022/04/17 00:51:07;;;;;;;3.70;3.33;;;7.10;76.30;;;;;;5091074;28;20188;-60
2022/04/17 00:53:34;;;;;;;5.28;3.45;;;7.50;76.60;;;;;;5088576;28;20497;-60
2022/04/17 00:56:02;;;;;;;3.90;3.50;;;7.50;76.20;;;;;;5093344;28;20199;-60
2022/04/17 00:58:33;;;;;;;3.65;3.35;;;7.40;77.00;;;;;;5090637;28;20208;-60
2022/04/17 01:00:59;;;;;;;3.30;2.97;;;7.40;77.60;;;;;;5082493;28;20303;-60
2022/04/17 01:03:26;;;;;;;3.60;3.30;;;7.50;78.50;;;;;;5088063;28;20240;-60
2022/04/17 01:05:52;;;;;;;4.93;4.22;;;7.20;78.40;;;;;;5091482;28;20181;-60
2022/04/17 01:08:17;;;;;;;3.37;3.07;;;7.00;79.10;;;;;;5074942;28;20245;-60
2022/04/17 01:10:43;;;;;;;4.60;3.17;;;6.60;78.40;;;;;;5079070;28;20628;-60
2022/04/17 01:13:09;;;;;;;3.50;3.28;;;7.10;79.80;;;;;;5086058;28;20216;-60
2022/04/17 01:15:39;;;;;;;3.90;3.60;;;7.10;80.50;;;;;;5088463;28;20576;-60
2022/04/17 01:18:05;;;;;;;5.18;3.70;;;7.30;81.50;;;;;;5089495;28;21045;-60
2022/04/17 01:20:31;;;;;;;4.38;3.63;;;7.00;80.80;;;;;;5089679;28;20668;-60
2022/04/17 01:28:27;;;;;;;4.43;3.47;;;6.90;80.80;;;;;;5058618;28;20214;-60
2022/04/17 01:30:56;;;;;;;3.70;3.40;;;6.50;80.90;;;;;;5088970;28;20676;-60
2022/04/17 01:33:25;;;;;;;3.53;3.22;;;7.00;82.30;;;;;;5086233;28;20568;-60
2022/04/17 01:35:51;;;;;;;3.90;3.50;;;6.90;81.80;;;;;;5089787;28;20267;-60
2022/04/17 01:38:17;;;;;;;3.67;3.37;;;6.70;82.30;;;;;;5087714;28;20620;-60
2022/04/17 01:40:42;;;;;;;4.13;3.73;;;6.70;84.20;;;;;;5081520;28;20184;-60
2022/04/17 01:43:11;;;;;;;5.10;4.00;;;6.50;86.80;;;;;;5086137;28;20274;-60
2022/04/17 01:45:37;;;;;;;4.55;3.72;;;6.70;87.00;;;;;;5081564;28;20665;-60
2022/04/17 01:48:03;;;;;;;4.17;3.60;;;6.60;84.50;;;;;;5087218;28;20274;-60
2022/04/17 01:50:30;;;;;;;3.95;3.65;;;6.60;84.00;;;;;;5085921;28;20441;-60
2022/04/17 01:53:00;;;;;;;3.80;3.50;;;6.60;85.70;;;;;;5087787;28;20596;-60
2022/04/17 01:55:27;;;;;;;3.70;3.17;;;6.30;86.50;;;;;;5081393;28;20207;-60
2022/04/17 01:57:53;;;;;;;4.07;3.78;;;5.90;86.40;;;;;;5089272;28;20272;-60
2022/04/17 02:00:18;;;;;;;3.80;3.40;;;6.50;87.20;;;;;;5088531;28;20195;-60
2022/04/17 02:02:44;;;;;;;3.73;3.10;;;6.20;86.60;;;;;;5084386;28;20491;-61
2022/04/17 02:05:09;;;;;;;3.57;3.27;;;6.40;87.80;;;;;;5089038;28;20197;-60
2022/04/17 02:07:36;;;;;;;3.77;3.40;;;6.30;89.50;;;;;;5071818;28;20576;-60
2022/04/17 02:10:06;;;;;;;3.60;3.30;;;5.70;87.30;;;;;;5065652;28;20191;-60
2022/04/17 02:12:33;;;;;;;4.43;4.03;;;6.30;88.20;;;;;;5088887;28;20194;-60
2022/04/17 02:14:59;;;;;;;3.70;3.40;;;6.50;88.50;;;;;;5091162;28;20255;-60
2022/04/17 02:17:24;;;;;;;4.17;3.77;;;6.70;87.20;;;;;;5090242;28;20188;-60
2022/04/17 02:19:51;;;;;;;3.87;3.57;;;6.00;86.80;;;;;;5088411;28;20179;-60
2022/04/17 02:22:17;;;;;;;4.22;3.83;;;5.70;86.20;;;;;;5091378;28;20733;-60
2022/04/17 02:24:42;;;;;;;4.90;4.40;;;6.20;85.60;;;;;;5086848;28;20310;-60
2022/04/17 02:27:08;;;;;;;5.40;4.60;;;6.20;86.00;;;;;;5092563;28;20472;-60
2022/04/17 02:29:33;;;;;;;3.67;3.37;;;6.40;87.30;;;;;;5093592;28;20888;-60
2022/04/17 02:31:59;;;;;;;4.30;3.90;;;6.00;87.50;;;;;;5091492;28;20219;-60
2022/04/17 02:34:24;;;;;;;4.60;4.20;;;5.90;89.50;;;;;;5089482;28;20580;-60
2022/04/17 02:36:50;;;;;;;4.93;3.90;;;6.10;90.70;;;;;;5086300;28;20188;-60
2022/04/17 02:39:16;;;;;;;4.47;4.07;;;5.40;90.60;;;;;;5091055;28;20667;-60
2022/04/17 02:41:41;;;;;;;5.00;4.20;;;6.00;92.00;;;;;;5093317;28;20227;-60
2022/04/17 02:44:07;;;;;;;5.00;3.80;;;6.00;90.90;;;;;;5090294;28;20474;-60
2022/04/17 02:49:16;;;;;;;4.22;3.85;;;5.30;90.70;;;;;;5090431;28;20204;-60
2022/04/17 02:51:42;;;;;;;4.97;3.90;;;5.50;91.80;;;;;;5092386;28;20566;-60
2022/04/17 02:54:08;;;;;;;5.00;4.17;;;5.70;91.90;;;;;;5091150;28;20562;-60
2022/04/17 02:56:33;;;;;;;5.03;4.53;;;5.30;91.90;;;;;;5089453;28;20555;-61
2022/04/17 02:58:59;;;;;;;7.17;4.43;;;5.50;92.80;;;;;;5091482;28;20560;-60
2022/04/17 03:06:54;;;;;;;4.30;3.90;;;5.50;93.30;;;;;;5091147;28;20285;-60
2022/04/17 03:09:19;;;;;;;4.43;4.03;;;4.90;93.40;;;;;;5090814;28;20265;-60
2022/04/17 03:11:45;;;;;;;4.93;4.43;;;5.50;94.00;;;;;;5091738;28;20248;-60
2022/04/17 03:14:10;;;;;;;5.20;4.70;;;5.60;94.20;;;;;;5090569;28;20467;-60
2022/04/17 03:16:36;;;;;;;5.80;4.30;;;4.90;93.90;;;;;;5087379;28;20673;-60
2022/04/17 03:19:02;;;;;;;4.73;4.20;;;5.40;94.30;;;;;;5085242;28;20734;-60
2022/04/17 03:21:28;;;;;;;4.40;4.00;;;4.80;94.00;;;;;;5092222;28;20266;-60
2022/04/17 03:23:54;;;;;;;5.63;3.85;;;5.40;94.00;;;;;;5090471;28;20471;-61
2022/04/17 03:26:20;;;;;;;5.00;4.57;;;5.50;93.60;;;;;;5089973;28;20199;-61
2022/04/17 03:28:45;;;;;;;4.80;4.27;;;5.20;93.80;;;;;;5093101;28;20195;-61
2022/04/17 03:31:11;;;;;;;4.33;3.93;;;5.30;93.80;;;;;;5090066;28;20187;-61
2022/04/17 03:33:36;;;;;;;4.80;4.17;;;5.00;93.80;;;;;;5085086;28;20198;-60
2022/04/17 03:36:02;;;;;;;5.23;4.67;;;5.30;94.10;;;;;;5091406;28;20260;-61
2022/04/17 03:38:28;;;;;;;4.30;4.00;;;5.10;93.90;;;;;;5061461;28;20187;-61
2022/04/17 03:40:54;;;;;;;5.27;4.87;;;4.90;94.70;;;;;;5080869;28;20177;-60
2022/04/17 03:43:22;;;;;;;5.13;4.20;;;4.90;95.30;;;;;;5091187;28;20224;-60
2022/04/17 03:45:49;;;;;;;5.50;4.60;;;4.90;94.90;;;;;;5089475;28;20199;-60
2022/04/17 03:48:16;;;;;;;5.18;4.45;;;4.90;94.40;;;;;;5086995;28;20213;-61
2022/04/17 03:50:43;;;;;;;5.25;4.75;;;4.70;94.10;;;;;;5089987;28;20246;-60
2022/04/17 03:53:09;;;;;;;5.60;5.10;;;4.80;94.50;;;;;;5071399;28;20221;-62
2022/04/17 03:55:35;;;;;;;5.05;4.32;;;5.20;94.50;;;;;;5087402;28;20563;-62
2022/04/17 03:58:02;;;;;;;6.93;5.15;;;5.00;94.20;;;;;;5091168;28;20258;-62
2022/04/17 04:00:27;;;;;;;5.25;4.85;;;4.60;93.90;;;;;;5089107;28;20582;-61
2022/04/17 04:02:53;;;;;;;5.07;4.53;;;4.60;94.00;;;;;;5086729;28;20198;-60
2022/04/17 04:05:19;;;;;;;10.20;5.50;;;5.30;93.90;;;;;;5089194;28;20194;-60
2022/04/17 04:07:46;;;;;;;5.07;4.60;;;5.00;93.80;;;;;;5090558;28;20180;-60
2022/04/17 04:10:12;;;;;;;6.28;5.28;;;5.30;94.30;;;;;;5086645;28;20207;-60
2022/04/17 04:12:38;;;;;;;5.87;4.43;;;5.20;94.30;;;;;;5084540;28;20219;-60
2022/04/17 04:15:05;;;;;;;5.22;4.57;;;5.30;94.30;;;;;;5088120;28;20741;-61
2022/04/17 04:17:31;;;;;;;4.57;4.07;;;5.30;94.20;;;;;;5090580;28;20189;-61
2022/04/17 04:19:56;;;;;;;4.70;4.30;;;5.30;94.20;;;;;;5089537;28;20186;-60
2022/04/17 04:22:22;;;;;;;5.00;4.50;;;5.10;94.00;;;;;;5071612;28;20186;-60
2022/04/17 04:24:48;;;;;;;5.27;4.87;;;4.70;94.50;;;;;;5084382;28;20251;-60
2022/04/17 04:29:58;;;;;;;4.90;4.40;;;5.20;95.30;;;;;;5088989;28;20193;-61
2022/04/17 04:32:23;;;;;;;5.80;5.20;;;4.90;95.60;;;;;;5086506;28;20186;-60
2022/04/17 04:34:49;;;;;;;4.97;4.53;;;5.00;96.20;;;;;;5087270;28;20208;-60
2022/04/17 04:37:15;;;;;;;5.10;4.70;;;4.80;96.50;;;;;;5083292;28;20197;-60
2022/04/17 04:39:41;;;;;;;4.70;4.30;;;4.80;97.00;;;;;;5068673;28;20185;-60
2022/04/17 04:42:07;;;;;;;4.17;3.87;;;5.00;98.00;;;;;;5084576;28;20974;-61
2022/04/17 04:44:33;;;;;;;4.47;4.18;;;5.00;97.60;;;;;;5085708;28;21027;-60
2022/04/17 04:46:58;;;;;;;4.30;3.90;;;5.00;97.00;;;;;;5080622;28;20191;-60
2022/04/17 04:49:30;;;;;;;4.23;3.83;;;4.40;96.50;;;;;;5085609;28;20187;-60
2022/04/17 04:52:00;;;;;;;4.55;4.18;;;4.80;96.00;;;;;;5086592;28;20219;-60
2022/04/17 04:54:26;;;;;;;4.80;4.10;;;5.10;96.10;;;;;;5088184;28;20202;-60
2022/04/17 04:56:52;;;;;;;5.88;5.30;;;4.90;96.40;;;;;;5085434;28;20177;-60
2022/04/17 04:59:18;;;;;;;5.80;5.00;;;4.90;96.70;;;;;;5075584;28;20214;-60
2022/04/17 05:01:43;;;;;;;6.82;5.03;;;5.00;96.80;;;;;;5082777;28;20181;-60
2022/04/17 05:04:09;;;;;;;7.03;4.67;;;4.20;96.80;;;;;;5081485;28;20224;-60
2022/04/17 05:06:35;;;;;;;5.50;5.00;;;4.50;97.00;;;;;;5086173;28;20272;-61
2022/04/17 05:09:00;;;;;;;4.43;4.03;;;4.80;97.10;;;;;;5083130;28;20197;-60
2022/04/17 05:11:26;;;;;;;5.70;4.87;;;5.10;96.70;;;;;;5084494;28;20546;-61
2022/04/17 05:13:51;;;;;;;5.77;4.97;;;4.30;96.30;;;;;;5066341;28;20623;-59
2022/04/17 05:16:17;;;;;;;6.63;5.53;;;5.00;96.90;;;;;;5084339;28;20534;-58
2022/04/17 05:18:42;;;;;;;5.40;4.93;;;4.40;96.40;;;;;;5090434;28;20598;-58
2022/04/17 05:21:08;;;;;;;5.30;4.83;;;4.40;96.50;;;;;;5083985;28;20184;-59
2022/04/17 05:23:36;;;;;;;6.45;5.60;;;4.90;97.00;;;;;;5079864;28;20722;-58
2022/04/17 05:26:03;;;;;;;5.70;4.90;;;4.20;96.70;;;;;;5090547;28;20280;-59
2022/04/17 05:28:29;;;;;;;5.30;4.80;;;4.30;97.00;;;;;;5086008;28;20182;-59
2022/04/17 05:30:55;;;;;;;5.90;5.40;;;4.40;97.00;;;;;;5087317;28;20185;-58
2022/04/17 05:33:21;;;;;;;5.43;4.93;;;5.10;97.10;;;;;;5087539;28;20625;-58
2022/04/17 05:35:48;;;;;;;6.18;5.15;;;4.90;96.90;;;;;;5083267;28;20234;-58
2022/04/17 05:38:14;;;;;;;5.93;5.20;;;4.90;97.00;;;;;;5084526;28;20182;-58
2022/04/17 05:40:46;;;;;;;4.88;4.47;;;5.20;97.10;;;;;;5085975;28;20199;-58
2022/04/17 05:43:12;;;;;;;4.82;4.43;;;5.30;95.60;;;;;;5083900;28;20280;-58
2022/04/17 05:45:38;;;;;;;5.13;4.63;;;5.20;93.40;;;;;;5082389;28;20186;-59
2022/04/17 05:48:09;;;;;;;4.68;4.28;;;6.20;93.10;;;;;;5083982;28;20255;-57
2022/04/17 05:50:36;;;;;;;4.90;4.05;;;5.90;92.60;;;;;;5088042;28;20191;-58
2022/04/17 05:53:02;;;;;;;4.40;4.00;;;6.10;91.90;;;;;;5082323;28;20190;-59
2022/04/17 05:55:28;;;;;;;4.40;4.00;;;6.10;91.80;;;;;;5081853;28;20193;-59
2022/04/17 05:57:54;;;;;;;4.68;4.28;;;5.80;91.20;;;;;;5086677;28;20537;-58
2022/04/17 06:00:20;;;;;;;4.40;4.00;;;6.50;90.80;;;;;;5088257;28;20215;-59
2022/04/17 06:02:49;;;;;;;4.47;4.07;;;6.50;90.30;;;;;;5084889;28;20179;-58
2022/04/17 06:05:15;;;;;;;9.05;3.70;;;6.40;89.70;;;;;;5084067;28;20290;-58
2022/04/17 06:07:41;;;;;;;3.88;3.58;;;6.70;89.40;;;;;;5086758;28;20179;-58
2022/04/17 06:10:10;;;;;;;4.60;4.20;;;7.00;89.50;;;;;;5085806;28;20190;-59
2022/04/17 06:12:36;;;;;;;4.53;4.13;;;7.00;88.90;;;;;;5070874;28;20446;-59
2022/04/17 06:15:04;;;;;;;5.50;4.43;;;7.40;88.70;;;;;;5081349;28;20265;-59
2022/04/17 06:17:37;;;;;;;3.97;3.65;;;7.40;88.90;;;;;;5081278;28;20190;-58
2022/04/17 06:20:07;;;;;;;4.03;3.40;;;7.50;86.30;;;;;;5084509;28;20173;-59
2022/04/17 06:22:37;;;;;;;4.50;4.07;;;7.40;84.10;;;;;;5081127;28;20184;-59
2022/04/17 06:25:05;;;;;;;3.75;3.45;;;7.90;83.50;;;;;;5085872;28;20278;-59
2022/04/17 06:27:40;;;;;;;4.38;3.97;;;8.30;83.20;;;;;;5087729;28;20602;-62
2022/04/17 06:30:11;;;;;;;4.15;3.70;;;8.70;79.70;;;;;;5082148;28;20188;-60
2022/04/17 06:32:38;;;;;;;4.55;3.45;;;8.90;77.90;;;;;;5086067;28;20189;-60
2022/04/17 06:35:04;;;;;;;4.85;3.85;;;8.60;76.60;;;;;;5089286;28;20303;-59
2022/04/17 06:37:30;;;;;;;5.20;3.80;;;8.80;75.90;;;;;;5081616;28;20548;-59
2022/04/17 06:39:57;;;;;;;4.00;3.70;;;9.00;76.70;;;;;;5080553;28;20188;-60
2022/04/17 06:42:23;;;;;;;3.40;3.10;;;9.40;75.40;;;;;;5089146;28;20180;-59
2022/04/17 06:44:48;;;;;;;3.57;3.27;;;10.00;72.20;;;;;;5087403;28;20584;-60
2022/04/17 06:47:14;;;;;;;4.60;3.20;;;10.80;69.80;;;;;;5083450;28;20193;-60
2022/04/17 06:49:39;;;;;;;4.53;3.70;;;11.30;66.50;;;;;;5084971;28;20198;-58
2022/04/17 06:52:05;;;;;;;3.80;3.10;;;11.90;64.30;;;;;;5084525;28;20584;-58
2022/04/17 06:54:31;;;;;;;3.40;3.07;;;12.20;60.00;;;;;;5087808;28;20756;-59
2022/04/17 06:56:57;;;;;;;3.08;2.88;;;13.00;59.30;;;;;;5080860;28;20460;-59
2022/04/17 06:59:23;;;;;;;3.20;2.90;;;14.20;56.80;;;;;;5091697;28;20188;-60
2022/04/17 07:01:48;;;;;;;3.80;3.50;;;14.50;54.40;;;;;;5091078;28;20199;-60
2022/04/17 07:04:15;;;;;;;2.80;2.60;;;16.50;52.30;;;;;;5086473;28;20224;-61
2022/04/17 07:06:40;;;;;;;3.10;2.90;;;18.30;48.50;;;;;;5092875;28;20290;-61
2022/04/17 07:09:06;;;;;;;2.83;2.63;;;17.70;46.00;;;;;;5068865;28;20660;-62
2022/04/17 07:11:31;;;;;;;2.90;2.70;;;19.00;45.20;;;;;;5089596;28;20224;-62
2022/04/17 07:13:57;;;;;;;3.50;2.70;;;19.90;42.30;;;;;;5090478;28;20211;-60
2022/04/17 07:16:23;;;;;;;3.22;3.00;;;20.50;40.70;;;;;;5069833;28;20176;-61
2022/04/17 07:18:49;;;;;;;2.90;2.70;;;20.60;40.00;;;;;;5091262;28;20257;-61
2022/04/17 07:21:15;;;;;;;3.27;2.97;;;21.30;38.90;;;;;;5092393;28;20275;-61
2022/04/17 07:23:43;;;;;;;2.77;2.57;;;21.90;37.90;;;;;;5090055;28;20230;-61
2022/04/17 07:26:09;;;;;;;3.40;3.03;;;21.50;37.10;;;;;;5090899;28;20434;-62
2022/04/17 07:28:37;;;;;;;3.20;2.90;;;21.30;36.70;;;;;;5089738;28;20426;-60
2022/04/17 07:31:02;;;;;;;2.90;2.70;;;20.60;37.20;;;;;;5089225;28;20204;-60
2022/04/17 07:33:28;;;;;;;2.30;2.20;;;21.30;37.10;;;;;;5089048;28;21104;-60
2022/04/17 07:35:54;;;;;;;2.70;2.50;;;23.30;36.00;;;;;;5074144;28;20195;-59
2022/04/17 07:38:19;;;;;;;3.10;2.57;;;23.60;33.60;;;;;;5073683;28;20659;-61
2022/04/17 07:40:45;;;;;;;2.53;2.40;;;23.40;33.60;;;;;;5083282;28;20189;-61
2022/04/17 07:43:11;;;;;;;2.90;2.60;;;24.30;32.70;;;;;;5090769;28;20198;-61
2022/04/17 07:45:37;;;;;;;3.17;2.57;;;23.40;32.60;;;;;;5085805;28;20576;-61
2022/04/17 07:48:03;;;;;;;2.80;2.60;;;22.80;32.60;;;;;;5092597;28;20657;-61
2022/04/17 07:50:31;;;;;;;3.47;3.17;;;21.60;33.30;;;;;;5091457;28;20729;-60
2022/04/17 07:52:57;;;;;;;2.40;2.20;;;23.60;32.90;;;;;;5084835;28;20488;-61
2022/04/17 07:55:23;;;;;;;3.03;2.40;;;25.20;31.70;;;;;;5086389;28;20480;-61
2022/04/17 08:00:44;;;;;;;2.87;2.67;;;23.60;30.50;;;;;;5090197;28;20448;-61
2022/04/17 08:03:21;;;;;;;2.70;2.50;;;24.40;31.00;;;;;;5073882;28;20976;-61
2022/04/17 08:05:47;;;;;;;2.57;2.37;;;23.50;30.10;;;;;;5089254;28;20933;-62
2022/04/17 08:08:13;;;;;;;2.70;2.50;;;24.90;30.60;;;;;;5089441;28;20436;-61
2022/04/17 08:10:39;;;;;;;2.70;2.50;;;24.00;28.90;;;;;;5084456;28;20955;-61
2022/04/17 08:13:05;;;;;;;3.20;2.60;;;23.80;30.20;;;;;;5085088;28;20218;-62
2022/04/17 08:15:31;;;;;;;2.80;2.60;;;24.60;30.00;;;;;;5080269;28;20187;-60
2022/04/17 08:17:57;;;;;;;2.60;2.40;;;23.50;29.60;;;;;;5086953;28;20813;-61
2022/04/17 08:20:23;;;;;;;2.85;2.65;;;23.50;30.00;;;;;;5090936;28;20780;-61
2022/04/17 08:22:48;;;;;;;2.70;2.50;;;22.90;30.20;;;;;;5089272;28;20193;-61
2022/04/17 08:25:14;;;;;;;3.00;2.80;;;23.30;30.60;;;;;;5085462;28;20443;-63
2022/04/17 08:27:54;;;;;;;3.17;2.97;;;24.00;30.20;;;;;;5086684;28;20189;-61
2022/04/17 08:30:24;;;;;;;2.90;2.70;;;24.70;29.20;;;;;;5081712;28;20706;-62
2022/04/17 08:32:50;;;;;;;3.17;2.40;;;24.30;29.60;;;;;;5086918;28;20444;-62
2022/04/17 08:35:16;;;;;;;2.80;2.60;;;24.90;29.40;;;;;;5086852;28;20906;-61
2022/04/17 08:37:45;;;;;;;2.63;2.43;;;25.20;28.40;;;;;;5086829;28;20972;-63
2022/04/17 08:40:11;;;;;;;2.90;2.70;;;24.80;28.80;;;;;;5088505;28;20445;-63
2022/04/17 08:42:38;;;;;;;2.83;2.60;;;24.90;28.90;;;;;;5089896;28;20473;-63
2022/04/17 08:45:04;;;;;;;2.70;2.50;;;24.90;28.30;;;;;;5089354;28;20441;-63
2022/04/17 08:47:30;;;;;;;4.43;2.50;;;24.60;28.70;;;;;;5085128;28;22979;-66
2022/04/17 08:49:56;;;;;;;2.50;2.30;;;24.70;29.00;;;;;;5086363;28;20460;-61
2022/04/17 08:52:22;;;;;;;2.73;2.53;;;25.00;28.10;;;;;;5085446;28;21104;-61
2022/04/17 08:54:50;;;;;;;2.30;2.20;;;25.00;27.60;;;;;;5085650;28;20248;-61
2022/04/17 08:57:20;;;;;;;2.50;2.30;;;24.20;27.60;;;;;;5061813;28;20426;-61
2022/04/17 08:59:46;;;;;;;2.37;2.17;;;25.70;28.00;;;;;;5084291;28;20272;-61
2022/04/17 09:02:12;;;;;;;2.50;2.30;;;26.80;26.60;;;;;;5085455;28;20529;-61
2022/04/17 09:04:40;;;;;;;2.43;2.23;;;26.50;27.30;;;;;;5088624;28;20273;-61
2022/04/17 09:07:07;;;;;;;3.00;2.80;;;26.00;26.40;;;;;;5086909;28;21018;-61
2022/04/17 09:09:41;;;;;;;3.00;2.60;;;25.70;27.00;;;;;;5089334;28;20441;-62
2022/04/17 09:12:07;;;;;;;2.97;2.77;;;25.70;27.80;;;;;;5088827;28;20433;-61
2022/04/17 09:14:40;;;;;;;2.80;2.60;;;26.20;26.90;;;;;;5086666;28;20978;-61
2022/04/17 09:17:10;;;;;;;3.40;2.67;;;27.20;26.80;;;;;;5089153;28;20191;-61
2022/04/17 09:19:36;;;;;;;2.67;2.47;;;27.70;25.90;;;;;;5086620;28;20450;-61
2022/04/17 09:22:02;;;;;;;2.20;2.00;;;27.10;26.40;;;;;;5087495;28;20427;-60
2022/04/17 09:24:28;;;;;;;2.50;2.30;;;26.20;25.80;;;;;;5100200;28;20523;-60
2022/04/17 09:26:55;;;;;;;3.10;2.47;;;26.00;27.00;;;;;;5088397;28;20918;-61
2022/04/17 09:29:25;;;;;;;3.10;2.40;;;25.30;26.50;;;;;;5080691;28;20187;-61
2022/04/17 09:32:02;;;;;;;2.60;2.30;;;25.30;27.20;;;;;;5083577;28;21022;-61
2022/04/17 09:34:52;;;;;;;4.80;2.40;;;25.00;27.20;;;;;;5085772;28;20460;-61
2022/04/17 09:37:22;;;;;;;2.60;2.40;;;24.40;27.40;;;;;;5080486;28;20434;-62
2022/04/17 09:39:50;;;;;;;2.60;2.40;;;23.30;28.20;;;;;;5082801;28;20439;-62
2022/04/17 09:42:23;;;;;;;2.23;1.97;;;23.20;29.00;;;;;;5087902;28;20458;-62
2022/04/17 09:44:51;;;;;;;2.63;2.13;;;21.70;29.20;;;;;;5086155;28;20483;-62
2022/04/17 09:47:18;;;;;;;2.40;2.20;;;22.40;29.40;;;;;;5086748;28;20470;-62
2022/04/17 09:50:03;;;;;;;2.50;2.30;;;22.50;29.10;;;;;;5077193;28;20422;-62
2022/04/17 09:52:44;;;;;;;2.40;2.30;;;21.80;28.90;;;;;;5084015;28;20450;-62
2022/04/17 09:55:10;;;;;;;2.13;2.03;;;22.80;29.30;;;;;;5086693;28;20486;-62
2022/04/17 09:57:44;;;;;;;2.43;2.07;;;23.50;28.90;;;;;;5085233;28;20447;-62
2022/04/17 10:00:15;;;;;;;3.10;2.20;;;24.30;29.00;;;;;;5086992;28;20442;-63
2022/04/17 10:02:43;;;;;;;2.27;2.07;;;23.80;28.10;;;;;;5066615;28;20430;-62
2022/04/17 10:05:11;;;;;;;2.70;2.50;;;23.70;28.60;;;;;;5088107;28;20565;-62
2022/04/17 10:07:41;;;;;;;2.50;2.30;;;23.00;28.30;;;;;;5088911;28;20509;-62
2022/04/17 10:10:11;;;;;;;2.43;2.03;;;22.90;28.60;;;;;;5088186;28;20840;-62
2022/04/17 10:12:39;;;;;;;2.70;2.50;;;22.50;29.40;;;;;;5083212;28;20447;-62
2022/04/17 10:15:07;;;;;;;4.00;2.60;;;22.20;29.60;;;;;;5088661;28;20485;-60
2022/04/17 10:17:33;;;;;;;2.27;2.07;;;22.40;29.90;;;;;;5084947;28;20434;-63
2022/04/17 10:20:06;;;;;;;3.03;1.97;;;21.90;30.10;;;;;;5089775;28;20468;-60
2022/04/17 10:22:36;;;;;;;2.33;2.13;;;21.30;30.10;;;;;;5083472;28;20458;-62
2022/04/17 10:25:04;;;;;;;2.63;2.42;;;20.50;30.80;;;;;;5090322;28;20244;-61
2022/04/17 10:27:54;;;;;;;2.50;2.30;;;20.80;31.50;;;;;;5082013;28;20246;-61
2022/04/17 10:30:29;;;;;;;2.50;2.30;;;20.90;31.80;;;;;;5086460;28;20192;-61
2022/04/17 10:33:13;;;;;;;5.20;2.00;;;20.90;32.10;;;;;;5087144;28;20200;-61
2022/04/17 10:35:57;;;;;;;3.08;2.35;;;20.00;32.20;;;;;;5087078;28;20236;-62
2022/04/17 10:38:28;;;;;;;2.40;2.20;;;19.90;33.20;;;;;;5086576;28;20218;-61
2022/04/17 10:40:59;;;;;;;2.22;2.03;;;20.20;33.10;;;;;;5092269;28;20183;-61
2022/04/17 10:43:53;;;;;;;2.67;2.45;;;20.60;32.70;;;;;;5092374;28;20208;-61
2022/04/17 10:46:21;;;;;;;1.65;1.55;;;21.50;32.60;;;;;;5089980;28;20190;-61
2022/04/17 10:48:51;;;;;;;2.05;1.83;;;21.00;31.30;;;;;;5090622;28;20184;-61
2022/04/17 10:51:25;;;;;;;2.30;2.10;;;21.30;31.40;;;;;;5086180;28;20547;-61
2022/04/17 10:54:09;;;;;;;2.10;1.90;;;21.90;31.20;;;;;;5092155;28;20216;-61
2022/04/17 10:56:56;;;;;;;2.73;2.40;;;22.60;30.20;;;;;;5092237;28;20437;-61
2022/04/17 10:59:27;;;;;;;2.27;2.07;;;23.00;30.00;;;;;;5092416;28;20491;-61
2022/04/17 11:02:01;;;;;;;2.20;2.10;;;22.50;29.80;;;;;;5081086;28;20450;-61
2022/04/17 11:04:37;;;;;;;2.70;2.07;;;21.90;30.10;;;;;;5085185;28;20474;-61
2022/04/17 11:07:11;;;;;;;2.00;1.90;;;21.60;30.10;;;;;;5091787;28;20800;-61
2022/04/17 11:09:40;;;;;;;2.10;1.90;;;21.50;31.00;;;;;;5093010;28;20417;-61
2022/04/17 11:12:20;;;;;;;1.77;1.67;;;22.20;30.30;;;;;;5070651;28;20488;-61
2022/04/17 11:14:52;;;;;;;1.60;1.50;;;22.60;29.60;;;;;;5092967;28;20875;-61
2022/04/17 11:17:24;;;;;;;1.42;1.33;;;21.30;29.50;;;;;;5087171;28;20447;-61
2022/04/17 11:19:54;;;;;;;2.90;1.95;;;21.10;30.20;;;;;;5086366;28;20188;-61
2022/04/17 11:22:24;;;;;;;1.63;1.52;;;20.80;31.20;;;;;;5092311;28;20194;-61
2022/04/17 11:24:56;;;;;;;2.13;1.90;;;21.30;30.80;;;;;;5087150;28;21072;-60
2022/04/17 11:27:45;;;;;;;1.85;1.75;;;21.40;30.20;;;;;;5092427;28;20565;-60
2022/04/17 11:30:13;;;;;;;1.85;1.65;;;21.20;30.10;;;;;;5090973;28;20587;-62
2022/04/17 11:32:39;;;;;;;1.70;1.60;;;21.30;30.20;;;;;;5082964;28;20247;-61
2022/04/17 11:35:10;;;;;;;2.00;1.80;;;20.90;29.90;;;;;;5088045;28;20228;-59
2022/04/17 11:37:35;;;;;;;2.42;1.60;;;20.40;30.30;;;;;;5088111;28;20667;-58
2022/04/17 11:40:12;;;;;;;2.00;1.80;;;20.80;30.70;;;;;;5085172;28;20218;-62
2022/04/17 11:42:47;;;;;;;1.90;1.50;;;20.50;30.50;;;;;;5072051;28;20203;-63
2022/04/17 11:45:16;;;;;;;3.15;1.92;;;20.60;30.00;;;;;;5083817;28;20188;-63
2022/04/17 11:47:43;;;;;;;3.63;2.17;;;20.50;29.80;;;;;;5087803;28;20180;-61
2022/04/17 11:50:11;;;;;;;1.77;1.67;;;20.70;29.90;;;;;;5090895;28;20195;-65
2022/04/17 11:52:37;;;;;;;2.10;1.90;;;20.90;30.40;;;;;;5070180;28;20182;-66
2022/04/17 11:55:05;;;;;;;2.40;2.20;;;21.10;30.10;;;;;;5083743;28;20207;-67
2022/04/17 11:57:32;;;;;;;2.75;1.48;;;20.40;30.10;;;;;;5069888;28;20208;-60
2022/04/17 11:59:58;;;;;;;2.70;1.75;;;20.00;30.00;;;;;;5084856;28;20651;-60
2022/04/17 12:02:25;;;;;;;1.80;1.50;;;19.80;30.60;;;;;;5089556;28;20188;-67
2022/04/17 12:05:08;;;;;;;2.97;2.08;;;19.80;30.60;;;;;;5081414;28;20474;-66
2022/04/17 12:07:34;;;;;;;2.30;2.10;;;19.50;30.70;;;;;;5084726;28;20215;-62
2022/04/17 12:10:08;;;;;;;3.10;2.30;;;19.40;31.30;;;;;;5093576;28;20216;-60
2022/04/17 12:12:38;;;;;;;2.05;1.95;;;19.10;32.10;;;;;;5069743;28;20438;-63
2022/04/17 12:15:06;;;;;;;2.60;2.15;;;18.60;31.80;;;;;;5074148;28;20308;-63
2022/04/17 12:17:33;;;;;;;1.92;1.83;;;18.70;32.90;;;;;;5087789;28;20245;-63
2022/04/17 12:19:59;;;;;;;2.60;2.40;;;18.70;33.70;;;;;;5091765;28;20184;-63
2022/04/17 12:22:25;;;;;;;2.05;1.85;;;18.70;33.30;;;;;;5090854;28;20184;-63
2022/04/17 12:24:51;;;;;;;2.30;2.10;;;18.80;32.90;;;;;;5084161;28;20292;-65
2022/04/17 12:27:21;;;;;;;2.00;1.80;;;18.20;32.80;;;;;;5086099;28;20180;-68
2022/04/17 12:29:47;;;;;;;2.00;1.60;;;18.20;33.70;;;;;;5089667;28;20198;-67
2022/04/17 12:32:19;;;;;;;1.90;1.70;;;18.10;33.30;;;;;;5089828;28;20196;-61
2022/04/17 12:34:45;;;;;;;1.95;1.70;;;17.90;33.70;;;;;;5088313;28;20716;-61
2022/04/17 12:37:21;;;;;;;2.55;1.50;;;18.10;33.00;;;;;;5083434;28;20180;-61
2022/04/17 12:39:47;;;;;;;1.67;1.50;;;17.70;33.70;;;;;;5091373;28;20179;-61
2022/04/17 12:42:18;;;;;;;1.60;1.50;;;17.80;34.50;;;;;;5084087;28;20188;-61
2022/04/17 12:44:44;;;;;;;1.58;1.48;;;17.50;33.00;;;;;;5084902;28;20208;-62
2022/04/17 12:47:11;;;;;;;1.95;1.75;;;17.70;34.10;;;;;;5069757;28;20664;-61
2022/04/17 12:49:38;;;;;;;2.03;1.83;;;17.50;34.50;;;;;;5091842;28;20184;-61
2022/04/17 12:52:04;;;;;;;3.03;1.90;;;17.60;34.30;;;;;;5087111;28;20189;-61
2022/04/17 12:54:34;;;;;;;3.50;1.80;;;17.70;34.40;;;;;;5089808;28;20272;-62
2022/04/17 12:57:10;;;;;;;2.10;1.60;;;17.60;33.90;;;;;;5084126;28;20950;-61
2022/04/17 12:59:41;;;;;;;1.90;1.80;;;17.50;34.00;;;;;;5090401;28;20211;-61
2022/04/17 13:02:15;;;;;;;2.70;1.92;;;17.60;34.40;;;;;;5084475;28;20184;-61
2022/04/17 13:04:47;;;;;;;2.10;1.95;;;17.60;34.80;;;;;;5075248;28;20215;-60
2022/04/17 13:07:15;;;;;;;2.08;1.40;;;17.50;33.40;;;;;;5085907;28;20184;-60
2022/04/17 13:09:55;;;;;;;1.85;1.60;;;17.40;32.40;;;;;;5090998;28;20279;-60
2022/04/17 13:12:46;;;;;;;1.60;1.50;;;17.30;31.50;;;;;;5075718;28;20181;-60
2022/04/17 13:15:16;;;;;;;3.40;2.08;;;17.30;33.60;;;;;;5087389;28;20207;-61